sensor_id;sensor_type;location;lat;lon;timestamp;P1;durP1;ratioP1;P2;durP2;ratioP2
58238;SDS011;44037;55.638;37.356;2023-07-30T00:01:50;16.52;;;11.07;;
58238;SDS011;44037;55.638;37.356;2023-07-30T00:04:18;14.02;;;10.20;;
58238;SDS011;44037;55.638;37.356;2023-07-30T00:06:46;12.80;;;11.05;;
58238;SDS011;44037;55.638;37.356;2023-07-30T00:09:13;15.10;;;10.65;;
58238;SDS011;44037;55.638;37.356;2023-07-30T00:11:42;16.70;;;12.27;;
58238;SDS011;44037;55.638;37.356;2023-07-30T00:14:09;17.65;;;11.38;;
58238;SDS011;44037;55.638;37.356;2023-07-30T00:16:36;20.88;;;11.52;;
58238;SDS011;44037;55.638;37.356;2023-07-30T00:19:04;17.35;;;11.38;;
58238;SDS011;44037;55.638;37.356;2023-07-30T00:21:31;15.13;;;11.43;;
58238;SDS011;44037;55.638;37.356;2023-07-30T00:23:58;18.50;;;12.25;;
58238;SDS011;44037;55.638;37.356;2023-07-30T00:26:26;18.08;;;12.07;;
58238;SDS011;44037;55.638;37.356;2023-07-30T00:28:55;16.90;;;11.32;;
58238;SDS011;44037;55.638;37.356;2023-07-30T00:31:22;19.85;;;11.65;;
58238;SDS011;44037;55.638;37.356;2023-07-30T00:33:49;19.25;;;12.55;;
58238;SDS011;44037;55.638;37.356;2023-07-30T00:36:17;17.27;;;11.60;;
58238;SDS011;44037;55.638;37.356;2023-07-30T00:38:44;17.75;;;12.07;;
58238;SDS011;44037;55.638;37.356;2023-07-30T00:41:11;19.60;;;12.32;;
58238;SDS011;44037;55.638;37.356;2023-07-30T00:43:38;18.05;;;12.25;;
58238;SDS011;44037;55.638;37.356;2023-07-30T00:46:07;21.92;;;14.23;;
58238;SDS011;44037;55.638;37.356;2023-07-30T00:48:34;22.58;;;12.52;;
58238;SDS011;44037;55.638;37.356;2023-07-30T00:51:02;21.15;;;12.02;;
58238;SDS011;44037;55.638;37.356;2023-07-30T00:53:29;20.17;;;12.55;;
58238;SDS011;44037;55.638;37.356;2023-07-30T00:55:57;21.38;;;12.48;;
58238;SDS011;44037;55.638;37.356;2023-07-30T00:58:24;21.30;;;12.05;;
58238;SDS011;44037;55.638;37.356;2023-07-30T01:00:53;20.05;;;13.38;;
58238;SDS011;44037;55.638;37.356;2023-07-30T01:03:22;22.20;;;12.60;;
58238;SDS011;44037;55.638;37.356;2023-07-30T01:05:50;19.35;;;11.95;;
58238;SDS011;44037;55.638;37.356;2023-07-30T01:08:17;22.10;;;13.18;;
58238;SDS011;44037;55.638;37.356;2023-07-30T01:10:45;23.02;;;12.50;;
58238;SDS011;44037;55.638;37.356;2023-07-30T01:13:12;24.83;;;14.05;;
58238;SDS011;44037;55.638;37.356;2023-07-30T01:15:42;21.55;;;13.20;;
58238;SDS011;44037;55.638;37.356;2023-07-30T01:18:09;20.45;;;11.88;;
58238;SDS011;44037;55.638;37.356;2023-07-30T01:20:38;22.88;;;13.02;;
58238;SDS011;44037;55.638;37.356;2023-07-30T01:23:07;18.48;;;12.48;;
58238;SDS011;44037;55.638;37.356;2023-07-30T01:25:35;18.40;;;12.07;;
58238;SDS011;44037;55.638;37.356;2023-07-30T01:28:04;18.73;;;10.90;;
58238;SDS011;44037;55.638;37.356;2023-07-30T01:30:33;18.45;;;11.00;;
58238;SDS011;44037;55.638;37.356;2023-07-30T01:33:05;13.85;;;9.98;;
58238;SDS011;44037;55.638;37.356;2023-07-30T01:35:33;15.50;;;9.20;;
58238;SDS011;44037;55.638;37.356;2023-07-30T01:38:03;16.13;;;9.43;;
58238;SDS011;44037;55.638;37.356;2023-07-30T01:40:32;13.18;;;9.15;;
58238;SDS011;44037;55.638;37.356;2023-07-30T01:43:00;15.50;;;9.50;;
58238;SDS011;44037;55.638;37.356;2023-07-30T01:45:27;13.52;;;9.93;;
58238;SDS011;44037;55.638;37.356;2023-07-30T01:47:54;11.00;;;9.43;;
58238;SDS011;44037;55.638;37.356;2023-07-30T01:50:21;16.50;;;9.30;;
58238;SDS011;44037;55.638;37.356;2023-07-30T01:52:48;11.90;;;8.40;;
58238;SDS011;44037;55.638;37.356;2023-07-30T01:55:16;15.27;;;8.85;;
58238;SDS011;44037;55.638;37.356;2023-07-30T01:57:45;14.55;;;8.90;;
58238;SDS011;44037;55.638;37.356;2023-07-30T02:00:12;12.95;;;8.52;;
58238;SDS011;44037;55.638;37.356;2023-07-30T02:02:39;11.63;;;8.20;;
58238;SDS011;44037;55.638;37.356;2023-07-30T02:05:06;11.32;;;7.78;;
58238;SDS011;44037;55.638;37.356;2023-07-30T02:07:33;9.02;;;7.55;;
58238;SDS011;44037;55.638;37.356;2023-07-30T02:10:01;12.27;;;7.85;;
58238;SDS011;44037;55.638;37.356;2023-07-30T02:12:31;11.95;;;7.68;;
58238;SDS011;44037;55.638;37.356;2023-07-30T02:14:59;11.15;;;7.85;;
58238;SDS011;44037;55.638;37.356;2023-07-30T02:17:31;17.10;;;7.10;;
58238;SDS011;44037;55.638;37.356;2023-07-30T02:20:18;10.45;;;7.03;;
58238;SDS011;44037;55.638;37.356;2023-07-30T02:22:45;8.75;;;7.03;;
58238;SDS011;44037;55.638;37.356;2023-07-30T02:25:13;11.90;;;7.13;;
58238;SDS011;44037;55.638;37.356;2023-07-30T02:27:40;9.98;;;6.55;;
58238;SDS011;44037;55.638;37.356;2023-07-30T02:30:09;8.65;;;7.03;;
58238;SDS011;44037;55.638;37.356;2023-07-30T02:32:36;8.73;;;6.97;;
58238;SDS011;44037;55.638;37.356;2023-07-30T02:35:04;8.38;;;6.38;;
58238;SDS011;44037;55.638;37.356;2023-07-30T02:37:31;10.82;;;6.75;;
58238;SDS011;44037;55.638;37.356;2023-07-30T02:39:59;8.98;;;6.60;;
58238;SDS011;44037;55.638;37.356;2023-07-30T02:42:29;8.35;;;6.60;;
58238;SDS011;44037;55.638;37.356;2023-07-30T02:44:56;10.98;;;7.15;;
58238;SDS011;44037;55.638;37.356;2023-07-30T02:47:25;12.80;;;6.82;;
58238;SDS011;44037;55.638;37.356;2023-07-30T02:49:52;13.18;;;6.90;;
58238;SDS011;44037;55.638;37.356;2023-07-30T02:52:19;11.73;;;8.43;;
58238;SDS011;44037;55.638;37.356;2023-07-30T02:54:46;8.80;;;6.55;;
58238;SDS011;44037;55.638;37.356;2023-07-30T02:57:13;11.57;;;7.00;;
58238;SDS011;44037;55.638;37.356;2023-07-30T02:59:40;10.05;;;6.53;;
58238;SDS011;44037;55.638;37.356;2023-07-30T03:02:07;13.05;;;6.10;;
58238;SDS011;44037;55.638;37.356;2023-07-30T03:04:36;11.75;;;6.35;;
58238;SDS011;44037;55.638;37.356;2023-07-30T03:07:03;10.18;;;7.82;;
58238;SDS011;44037;55.638;37.356;2023-07-30T03:09:31;9.60;;;6.20;;
58238;SDS011;44037;55.638;37.356;2023-07-30T03:11:59;6.97;;;5.65;;
58238;SDS011;44037;55.638;37.356;2023-07-30T03:14:26;8.73;;;6.38;;
58238;SDS011;44037;55.638;37.356;2023-07-30T03:16:53;6.43;;;5.38;;
58238;SDS011;44037;55.638;37.356;2023-07-30T03:19:20;7.65;;;5.82;;
58238;SDS011;44037;55.638;37.356;2023-07-30T03:21:49;8.50;;;5.38;;
58238;SDS011;44037;55.638;37.356;2023-07-30T03:24:16;8.55;;;5.75;;
58238;SDS011;44037;55.638;37.356;2023-07-30T03:26:43;5.93;;;5.22;;
58238;SDS011;44037;55.638;37.356;2023-07-30T03:29:11;7.53;;;5.30;;
58238;SDS011;44037;55.638;37.356;2023-07-30T03:31:38;6.75;;;5.13;;
58238;SDS011;44037;55.638;37.356;2023-07-30T03:34:05;7.35;;;5.28;;
58238;SDS011;44037;55.638;37.356;2023-07-30T03:36:32;7.45;;;4.97;;
58238;SDS011;44037;55.638;37.356;2023-07-30T03:39:01;7.97;;;4.60;;
58238;SDS011;44037;55.638;37.356;2023-07-30T03:41:28;11.25;;;5.05;;
58238;SDS011;44037;55.638;37.356;2023-07-30T03:43:57;8.68;;;4.75;;
58238;SDS011;44037;55.638;37.356;2023-07-30T03:46:24;6.45;;;4.88;;
58238;SDS011;44037;55.638;37.356;2023-07-30T03:48:51;9.07;;;5.15;;
58238;SDS011;44037;55.638;37.356;2023-07-30T03:51:18;6.82;;;4.78;;
58238;SDS011;44037;55.638;37.356;2023-07-30T03:53:45;7.30;;;4.60;;
58238;SDS011;44037;55.638;37.356;2023-07-30T03:56:14;8.68;;;5.68;;
58238;SDS011;44037;55.638;37.356;2023-07-30T03:58:41;6.72;;;4.25;;
58238;SDS011;44037;55.638;37.356;2023-07-30T04:01:10;8.43;;;4.65;;
58238;SDS011;44037;55.638;37.356;2023-07-30T04:03:37;6.70;;;4.60;;
58238;SDS011;44037;55.638;37.356;2023-07-30T04:06:04;7.60;;;4.60;;
58238;SDS011;44037;55.638;37.356;2023-07-30T04:08:31;7.97;;;4.93;;
58238;SDS011;44037;55.638;37.356;2023-07-30T04:10:58;7.18;;;4.57;;
58238;SDS011;44037;55.638;37.356;2023-07-30T04:13:27;5.15;;;4.15;;
58238;SDS011;44037;55.638;37.356;2023-07-30T04:15:54;10.85;;;4.40;;
58238;SDS011;44037;55.638;37.356;2023-07-30T04:18:21;6.38;;;3.65;;
58238;SDS011;44037;55.638;37.356;2023-07-30T04:20:50;7.18;;;3.92;;
58238;SDS011;44037;55.638;37.356;2023-07-30T04:23:20;5.90;;;3.95;;
58238;SDS011;44037;55.638;37.356;2023-07-30T04:25:48;6.68;;;4.03;;
58238;SDS011;44037;55.638;37.356;2023-07-30T04:28:15;4.88;;;3.30;;
58238;SDS011;44037;55.638;37.356;2023-07-30T04:30:47;3.92;;;3.60;;
58238;SDS011;44037;55.638;37.356;2023-07-30T04:33:14;7.20;;;4.47;;
58238;SDS011;44037;55.638;37.356;2023-07-30T04:35:41;4.53;;;3.63;;
58238;SDS011;44037;55.638;37.356;2023-07-30T04:38:08;6.68;;;3.78;;
58238;SDS011;44037;55.638;37.356;2023-07-30T04:40:35;6.60;;;3.78;;
58238;SDS011;44037;55.638;37.356;2023-07-30T04:43:02;6.35;;;3.72;;
58238;SDS011;44037;55.638;37.356;2023-07-30T04:45:30;7.18;;;3.50;;
58238;SDS011;44037;55.638;37.356;2023-07-30T04:47:58;5.10;;;3.60;;
58238;SDS011;44037;55.638;37.356;2023-07-30T04:50:25;7.80;;;3.55;;
58238;SDS011;44037;55.638;37.356;2023-07-30T04:52:53;5.55;;;3.75;;
58238;SDS011;44037;55.638;37.356;2023-07-30T04:55:20;6.63;;;3.72;;
58238;SDS011;44037;55.638;37.356;2023-07-30T04:57:47;7.47;;;3.97;;
58238;SDS011;44037;55.638;37.356;2023-07-30T05:00:14;6.05;;;3.55;;
58238;SDS011;44037;55.638;37.356;2023-07-30T05:02:42;7.47;;;3.28;;
58238;SDS011;44037;55.638;37.356;2023-07-30T05:05:11;7.22;;;3.88;;
58238;SDS011;44037;55.638;37.356;2023-07-30T05:07:38;5.47;;;3.60;;
58238;SDS011;44037;55.638;37.356;2023-07-30T05:10:05;4.10;;;3.55;;
58238;SDS011;44037;55.638;37.356;2023-07-30T05:12:36;6.13;;;3.50;;
58238;SDS011;44037;55.638;37.356;2023-07-30T05:15:03;5.22;;;3.67;;
58238;SDS011;44037;55.638;37.356;2023-07-30T05:17:31;5.93;;;3.72;;
58238;SDS011;44037;55.638;37.356;2023-07-30T05:19:58;7.43;;;3.95;;
58238;SDS011;44037;55.638;37.356;2023-07-30T05:22:27;5.95;;;3.55;;
58238;SDS011;44037;55.638;37.356;2023-07-30T05:24:54;9.00;;;3.60;;
58238;SDS011;44037;55.638;37.356;2023-07-30T05:27:21;5.28;;;3.92;;
58238;SDS011;44037;55.638;37.356;2023-07-30T05:29:49;4.25;;;3.45;;
58238;SDS011;44037;55.638;37.356;2023-07-30T05:32:16;6.78;;;3.38;;
58238;SDS011;44037;55.638;37.356;2023-07-30T05:34:43;5.80;;;3.65;;
58238;SDS011;44037;55.638;37.356;2023-07-30T05:37:10;4.95;;;3.72;;
58238;SDS011;44037;55.638;37.356;2023-07-30T05:39:39;5.90;;;3.53;;
58238;SDS011;44037;55.638;37.356;2023-07-30T05:42:06;10.15;;;3.22;;
58238;SDS011;44037;55.638;37.356;2023-07-30T05:44:33;4.45;;;3.03;;
58238;SDS011;44037;55.638;37.356;2023-07-30T05:47:00;7.65;;;3.78;;
58238;SDS011;44037;55.638;37.356;2023-07-30T05:49:28;4.68;;;3.95;;
58238;SDS011;44037;55.638;37.356;2023-07-30T05:51:55;3.70;;;2.88;;
58238;SDS011;44037;55.638;37.356;2023-07-30T05:54:22;6.90;;;3.08;;
58238;SDS011;44037;55.638;37.356;2023-07-30T05:56:51;3.83;;;2.65;;
58238;SDS011;44037;55.638;37.356;2023-07-30T05:59:19;5.57;;;3.08;;
58238;SDS011;44037;55.638;37.356;2023-07-30T06:01:46;9.40;;;5.93;;
58238;SDS011;44037;55.638;37.356;2023-07-30T06:04:13;5.07;;;3.28;;
58238;SDS011;44037;55.638;37.356;2023-07-30T06:06:41;4.22;;;3.03;;
58238;SDS011;44037;55.638;37.356;2023-07-30T06:09:08;3.65;;;2.90;;
58238;SDS011;44037;55.638;37.356;2023-07-30T06:11:37;5.13;;;2.67;;
58238;SDS011;44037;55.638;37.356;2023-07-30T06:14:06;3.40;;;2.40;;
58238;SDS011;44037;55.638;37.356;2023-07-30T06:16:33;4.25;;;3.30;;
58238;SDS011;44037;55.638;37.356;2023-07-30T06:19:00;4.38;;;2.40;;
58238;SDS011;44037;55.638;37.356;2023-07-30T06:21:28;4.65;;;2.42;;
58238;SDS011;44037;55.638;37.356;2023-07-30T06:23:55;5.05;;;2.55;;
58238;SDS011;44037;55.638;37.356;2023-07-30T06:26:22;4.15;;;2.50;;
58238;SDS011;44037;55.638;37.356;2023-07-30T06:28:49;4.18;;;2.83;;
58238;SDS011;44037;55.638;37.356;2023-07-30T06:31:18;3.72;;;2.67;;
58238;SDS011;44037;55.638;37.356;2023-07-30T06:33:46;3.65;;;2.83;;
58238;SDS011;44037;55.638;37.356;2023-07-30T06:36:14;4.47;;;2.42;;
58238;SDS011;44037;55.638;37.356;2023-07-30T06:38:44;7.78;;;3.25;;
58238;SDS011;44037;55.638;37.356;2023-07-30T06:41:11;4.07;;;3.28;;
58238;SDS011;44037;55.638;37.356;2023-07-30T06:43:40;5.32;;;2.50;;
58238;SDS011;44037;55.638;37.356;2023-07-30T06:46:07;3.78;;;2.33;;
58238;SDS011;44037;55.638;37.356;2023-07-30T06:48:36;4.60;;;2.35;;
58238;SDS011;44037;55.638;37.356;2023-07-30T06:51:05;5.03;;;2.83;;
58238;SDS011;44037;55.638;37.356;2023-07-30T06:53:33;4.13;;;2.70;;
58238;SDS011;44037;55.638;37.356;2023-07-30T06:56:02;10.30;;;8.00;;
58238;SDS011;44037;55.638;37.356;2023-07-30T06:58:31;3.03;;;2.25;;
58238;SDS011;44037;55.638;37.356;2023-07-30T07:01:01;7.03;;;3.65;;
58238;SDS011;44037;55.638;37.356;2023-07-30T07:03:31;3.92;;;2.92;;
58238;SDS011;44037;55.638;37.356;2023-07-30T07:06:00;4.63;;;3.03;;
58238;SDS011;44037;55.638;37.356;2023-07-30T07:08:27;6.72;;;3.15;;
58238;SDS011;44037;55.638;37.356;2023-07-30T07:10:54;3.85;;;2.00;;
58238;SDS011;44037;55.638;37.356;2023-07-30T07:13:21;4.65;;;3.17;;
58238;SDS011;44037;55.638;37.356;2023-07-30T07:15:52;3.38;;;2.67;;
58238;SDS011;44037;55.638;37.356;2023-07-30T07:18:19;3.38;;;2.70;;
58238;SDS011;44037;55.638;37.356;2023-07-30T07:20:47;4.05;;;2.78;;
58238;SDS011;44037;55.638;37.356;2023-07-30T07:23:15;7.90;;;5.03;;
58238;SDS011;44037;55.638;37.356;2023-07-30T07:25:43;3.13;;;2.47;;
58238;SDS011;44037;55.638;37.356;2023-07-30T07:28:10;5.78;;;3.70;;
58238;SDS011;44037;55.638;37.356;2023-07-30T07:30:38;4.18;;;2.38;;
58238;SDS011;44037;55.638;37.356;2023-07-30T07:33:05;5.13;;;3.20;;
58238;SDS011;44037;55.638;37.356;2023-07-30T07:35:34;3.78;;;2.58;;
58238;SDS011;44037;55.638;37.356;2023-07-30T07:38:01;5.40;;;3.08;;
58238;SDS011;44037;55.638;37.356;2023-07-30T07:40:30;4.35;;;2.30;;
58238;SDS011;44037;55.638;37.356;2023-07-30T07:42:57;4.25;;;3.22;;
58238;SDS011;44037;55.638;37.356;2023-07-30T07:45:24;4.07;;;2.50;;
58238;SDS011;44037;55.638;37.356;2023-07-30T07:47:51;2.75;;;2.05;;
58238;SDS011;44037;55.638;37.356;2023-07-30T07:50:18;4.20;;;2.53;;
58238;SDS011;44037;55.638;37.356;2023-07-30T07:52:45;3.58;;;2.58;;
58238;SDS011;44037;55.638;37.356;2023-07-30T07:55:12;3.92;;;2.58;;
58238;SDS011;44037;55.638;37.356;2023-07-30T07:57:41;5.85;;;2.70;;
58238;SDS011;44037;55.638;37.356;2023-07-30T08:00:08;4.53;;;2.40;;
58238;SDS011;44037;55.638;37.356;2023-07-30T08:02:36;4.80;;;2.58;;
58238;SDS011;44037;55.638;37.356;2023-07-30T08:05:03;3.00;;;2.22;;
58238;SDS011;44037;55.638;37.356;2023-07-30T08:07:31;2.20;;;1.90;;
58238;SDS011;44037;55.638;37.356;2023-07-30T08:09:58;4.57;;;2.25;;
58238;SDS011;44037;55.638;37.356;2023-07-30T08:12:25;2.72;;;2.40;;
58238;SDS011;44037;55.638;37.356;2023-07-30T08:14:54;3.05;;;2.35;;
58238;SDS011;44037;55.638;37.356;2023-07-30T08:17:21;2.95;;;2.63;;
58238;SDS011;44037;55.638;37.356;2023-07-30T08:19:48;3.17;;;2.10;;
58238;SDS011;44037;55.638;37.356;2023-07-30T08:22:17;5.88;;;2.30;;
58238;SDS011;44037;55.638;37.356;2023-07-30T08:24:44;3.15;;;2.05;;
58238;SDS011;44037;55.638;37.356;2023-07-30T08:27:11;2.50;;;1.92;;
58238;SDS011;44037;55.638;37.356;2023-07-30T08:29:38;2.97;;;2.40;;
58238;SDS011;44037;55.638;37.356;2023-07-30T08:32:07;1.90;;;1.63;;
58238;SDS011;44037;55.638;37.356;2023-07-30T08:34:34;4.72;;;1.75;;
58238;SDS011;44037;55.638;37.356;2023-07-30T08:37:01;2.53;;;1.30;;
58238;SDS011;44037;55.638;37.356;2023-07-30T08:39:28;3.20;;;1.88;;
58238;SDS011;44037;55.638;37.356;2023-07-30T08:41:56;2.05;;;1.60;;
58238;SDS011;44037;55.638;37.356;2023-07-30T08:44:23;4.72;;;2.00;;
58238;SDS011;44037;55.638;37.356;2023-07-30T08:46:50;1.92;;;1.58;;
58238;SDS011;44037;55.638;37.356;2023-07-30T08:49:19;2.92;;;1.70;;
58238;SDS011;44037;55.638;37.356;2023-07-30T08:51:46;4.10;;;2.28;;
58238;SDS011;44037;55.638;37.356;2023-07-30T08:54:18;2.78;;;1.77;;
58238;SDS011;44037;55.638;37.356;2023-07-30T08:56:47;2.40;;;1.58;;
58238;SDS011;44037;55.638;37.356;2023-07-30T08:59:15;4.22;;;1.95;;
58238;SDS011;44037;55.638;37.356;2023-07-30T09:01:42;1.70;;;1.60;;
58238;SDS011;44037;55.638;37.356;2023-07-30T09:04:11;2.38;;;1.75;;
58238;SDS011;44037;55.638;37.356;2023-07-30T09:06:43;2.70;;;1.50;;
58238;SDS011;44037;55.638;37.356;2023-07-30T09:09:14;1.67;;;1.48;;
58238;SDS011;44037;55.638;37.356;2023-07-30T09:11:41;3.78;;;2.30;;
58238;SDS011;44037;55.638;37.356;2023-07-30T09:14:08;2.25;;;1.52;;
58238;SDS011;44037;55.638;37.356;2023-07-30T09:16:36;2.80;;;1.83;;
58238;SDS011;44037;55.638;37.356;2023-07-30T09:19:03;1.60;;;1.50;;
58238;SDS011;44037;55.638;37.356;2023-07-30T09:21:33;3.13;;;2.00;;
58238;SDS011;44037;55.638;37.356;2023-07-30T09:24:03;2.83;;;2.15;;
58238;SDS011;44037;55.638;37.356;2023-07-30T09:26:44;4.53;;;2.08;;
58238;SDS011;44037;55.638;37.356;2023-07-30T09:29:13;2.28;;;1.50;;
58238;SDS011;44037;55.638;37.356;2023-07-30T09:31:45;4.18;;;1.95;;
58238;SDS011;44037;55.638;37.356;2023-07-30T09:34:17;3.63;;;1.60;;
58238;SDS011;44037;55.638;37.356;2023-07-30T09:36:47;2.42;;;1.83;;
58238;SDS011;44037;55.638;37.356;2023-07-30T09:39:19;2.90;;;1.60;;
58238;SDS011;44037;55.638;37.356;2023-07-30T09:41:48;2.75;;;1.85;;
58238;SDS011;44037;55.638;37.356;2023-07-30T09:44:16;5.68;;;3.17;;
58238;SDS011;44037;55.638;37.356;2023-07-30T09:46:44;4.88;;;2.33;;
58238;SDS011;44037;55.638;37.356;2023-07-30T09:49:14;6.25;;;2.25;;
58238;SDS011;44037;55.638;37.356;2023-07-30T09:51:41;5.28;;;2.05;;
58238;SDS011;44037;55.638;37.356;2023-07-30T09:54:09;5.93;;;1.98;;
58238;SDS011;44037;55.638;37.356;2023-07-30T09:56:39;3.10;;;1.95;;
58238;SDS011;44037;55.638;37.356;2023-07-30T09:59:08;2.30;;;2.05;;
58238;SDS011;44037;55.638;37.356;2023-07-30T10:01:38;3.33;;;1.98;;
58238;SDS011;44037;55.638;37.356;2023-07-30T10:04:08;3.72;;;1.70;;
58238;SDS011;44037;55.638;37.356;2023-07-30T10:06:39;3.03;;;2.00;;
58238;SDS011;44037;55.638;37.356;2023-07-30T10:09:09;4.15;;;1.88;;
58238;SDS011;44037;55.638;37.356;2023-07-30T10:11:39;3.95;;;1.80;;
58238;SDS011;44037;55.638;37.356;2023-07-30T10:14:09;5.88;;;2.72;;
58238;SDS011;44037;55.638;37.356;2023-07-30T10:16:37;3.55;;;1.63;;
58238;SDS011;44037;55.638;37.356;2023-07-30T10:19:05;4.45;;;1.92;;
58238;SDS011;44037;55.638;37.356;2023-07-30T10:21:33;2.45;;;1.65;;
58238;SDS011;44037;55.638;37.356;2023-07-30T10:24:01;2.72;;;1.90;;
58238;SDS011;44037;55.638;37.356;2023-07-30T10:26:30;2.67;;;1.70;;
58238;SDS011;44037;55.638;37.356;2023-07-30T10:29:13;2.65;;;2.13;;
58238;SDS011;44037;55.638;37.356;2023-07-30T10:31:42;3.38;;;1.70;;
58238;SDS011;44037;55.638;37.356;2023-07-30T10:34:14;4.20;;;1.40;;
58238;SDS011;44037;55.638;37.356;2023-07-30T10:36:42;3.45;;;1.98;;
58238;SDS011;44037;55.638;37.356;2023-07-30T10:39:10;1.95;;;1.30;;
58238;SDS011;44037;55.638;37.356;2023-07-30T10:41:38;2.47;;;1.50;;
58238;SDS011;44037;55.638;37.356;2023-07-30T10:44:06;3.85;;;1.60;;
58238;SDS011;44037;55.638;37.356;2023-07-30T10:46:35;2.10;;;1.60;;
58238;SDS011;44037;55.638;37.356;2023-07-30T10:49:03;2.55;;;1.92;;
58238;SDS011;44037;55.638;37.356;2023-07-30T10:51:31;2.95;;;1.60;;
58238;SDS011;44037;55.638;37.356;2023-07-30T10:54:00;3.63;;;1.88;;
58238;SDS011;44037;55.638;37.356;2023-07-30T10:56:27;5.32;;;1.67;;
58238;SDS011;44037;55.638;37.356;2023-07-30T10:58:54;2.42;;;1.60;;
58238;SDS011;44037;55.638;37.356;2023-07-30T11:01:23;2.88;;;1.33;;
58238;SDS011;44037;55.638;37.356;2023-07-30T11:03:53;2.35;;;1.75;;
58238;SDS011;44037;55.638;37.356;2023-07-30T11:06:21;2.08;;;1.35;;
58238;SDS011;44037;55.638;37.356;2023-07-30T11:08:49;4.15;;;1.75;;
58238;SDS011;44037;55.638;37.356;2023-07-30T11:11:16;2.75;;;1.30;;
58238;SDS011;44037;55.638;37.356;2023-07-30T11:13:44;2.85;;;1.60;;
58238;SDS011;44037;55.638;37.356;2023-07-30T11:16:12;1.95;;;1.35;;
58238;SDS011;44037;55.638;37.356;2023-07-30T11:18:40;3.85;;;2.15;;
58238;SDS011;44037;55.638;37.356;2023-07-30T11:21:10;3.00;;;1.88;;
58238;SDS011;44037;55.638;37.356;2023-07-30T11:23:39;3.50;;;1.70;;
58238;SDS011;44037;55.638;37.356;2023-07-30T11:26:08;2.67;;;1.45;;
58238;SDS011;44037;55.638;37.356;2023-07-30T11:28:36;4.47;;;1.50;;
58238;SDS011;44037;55.638;37.356;2023-07-30T11:31:05;2.60;;;1.63;;
58238;SDS011;44037;55.638;37.356;2023-07-30T11:33:35;4.13;;;1.70;;
58238;SDS011;44037;55.638;37.356;2023-07-30T11:36:04;1.58;;;1.20;;
58238;SDS011;44037;55.638;37.356;2023-07-30T11:38:35;4.47;;;1.30;;
58238;SDS011;44037;55.638;37.356;2023-07-30T11:41:04;3.08;;;2.70;;
58238;SDS011;44037;55.638;37.356;2023-07-30T11:43:35;2.60;;;1.27;;
58238;SDS011;44037;55.638;37.356;2023-07-30T11:46:08;5.05;;;1.73;;
58238;SDS011;44037;55.638;37.356;2023-07-30T11:48:39;2.90;;;1.60;;
58238;SDS011;44037;55.638;37.356;2023-07-30T11:51:17;4.55;;;2.42;;
58238;SDS011;44037;55.638;37.356;2023-07-30T11:53:48;4.57;;;2.33;;
58238;SDS011;44037;55.638;37.356;2023-07-30T11:56:17;7.50;;;2.08;;
58238;SDS011;44037;55.638;37.356;2023-07-30T11:58:45;1.85;;;1.45;;
58238;SDS011;44037;55.638;37.356;2023-07-30T12:01:12;1.65;;;1.08;;
58238;SDS011;44037;55.638;37.356;2023-07-30T12:03:40;2.45;;;1.17;;
58238;SDS011;44037;55.638;37.356;2023-07-30T12:06:07;3.85;;;1.52;;
58238;SDS011;44037;55.638;37.356;2023-07-30T12:08:36;3.28;;;1.67;;
58238;SDS011;44037;55.638;37.356;2023-07-30T12:11:06;4.15;;;1.67;;
58238;SDS011;44037;55.638;37.356;2023-07-30T12:13:34;2.95;;;1.83;;
58238;SDS011;44037;55.638;37.356;2023-07-30T12:16:10;2.65;;;2.08;;
58238;SDS011;44037;55.638;37.356;2023-07-30T12:18:38;3.50;;;1.50;;
58238;SDS011;44037;55.638;37.356;2023-07-30T12:21:06;1.77;;;1.20;;
58238;SDS011;44037;55.638;37.356;2023-07-30T12:23:36;2.33;;;1.45;;
58238;SDS011;44037;55.638;37.356;2023-07-30T12:26:05;1.92;;;1.35;;
58238;SDS011;44037;55.638;37.356;2023-07-30T12:28:32;2.97;;;1.60;;
58238;SDS011;44037;55.638;37.356;2023-07-30T12:31:00;2.47;;;1.50;;
58238;SDS011;44037;55.638;37.356;2023-07-30T12:33:27;2.40;;;1.50;;
58238;SDS011;44037;55.638;37.356;2023-07-30T12:35:54;2.65;;;1.60;;
58238;SDS011;44037;55.638;37.356;2023-07-30T12:38:21;2.25;;;1.55;;
58238;SDS011;44037;55.638;37.356;2023-07-30T12:40:48;3.85;;;1.70;;
58238;SDS011;44037;55.638;37.356;2023-07-30T12:43:17;1.98;;;1.65;;
58238;SDS011;44037;55.638;37.356;2023-07-30T12:45:46;3.92;;;2.10;;
58238;SDS011;44037;55.638;37.356;2023-07-30T12:48:14;4.22;;;1.40;;
58238;SDS011;44037;55.638;37.356;2023-07-30T12:50:41;6.00;;;2.17;;
58238;SDS011;44037;55.638;37.356;2023-07-30T12:53:08;3.85;;;1.92;;
58238;SDS011;44037;55.638;37.356;2023-07-30T12:55:35;3.92;;;1.83;;
58238;SDS011;44037;55.638;37.356;2023-07-30T12:58:03;3.67;;;1.75;;
58238;SDS011;44037;55.638;37.356;2023-07-30T13:00:33;5.07;;;1.45;;
58238;SDS011;44037;55.638;37.356;2023-07-30T13:03:00;2.78;;;1.92;;
58238;SDS011;44037;55.638;37.356;2023-07-30T13:05:28;2.35;;;1.80;;
58238;SDS011;44037;55.638;37.356;2023-07-30T13:07:56;3.53;;;2.00;;
58238;SDS011;44037;55.638;37.356;2023-07-30T13:10:23;2.38;;;1.42;;
58238;SDS011;44037;55.638;37.356;2023-07-30T13:12:50;3.63;;;1.67;;
58238;SDS011;44037;55.638;37.356;2023-07-30T13:15:17;3.30;;;1.40;;
58238;SDS011;44037;55.638;37.356;2023-07-30T13:17:46;3.17;;;1.77;;
58238;SDS011;44037;55.638;37.356;2023-07-30T13:20:13;3.30;;;1.80;;
58238;SDS011;44037;55.638;37.356;2023-07-30T13:22:40;3.30;;;1.52;;
58238;SDS011;44037;55.638;37.356;2023-07-30T13:25:07;2.83;;;1.90;;
58238;SDS011;44037;55.638;37.356;2023-07-30T13:27:34;3.20;;;1.80;;
58238;SDS011;44037;55.638;37.356;2023-07-30T13:30:02;4.82;;;1.95;;
58238;SDS011;44037;55.638;37.356;2023-07-30T13:32:30;2.85;;;1.50;;
58238;SDS011;44037;55.638;37.356;2023-07-30T13:34:58;4.72;;;1.80;;
58238;SDS011;44037;55.638;37.356;2023-07-30T13:37:26;2.28;;;1.48;;
58238;SDS011;44037;55.638;37.356;2023-07-30T13:39:53;2.63;;;1.75;;
58238;SDS011;44037;55.638;37.356;2023-07-30T13:42:20;2.22;;;1.60;;
58238;SDS011;44037;55.638;37.356;2023-07-30T13:44:47;2.72;;;1.85;;
58238;SDS011;44037;55.638;37.356;2023-07-30T13:47:14;2.92;;;1.90;;
58238;SDS011;44037;55.638;37.356;2023-07-30T13:49:41;4.28;;;1.70;;
58238;SDS011;44037;55.638;37.356;2023-07-30T13:52:10;6.85;;;1.67;;
58238;SDS011;44037;55.638;37.356;2023-07-30T13:54:37;4.38;;;2.17;;
58238;SDS011;44037;55.638;37.356;2023-07-30T13:57:04;2.67;;;1.70;;
58238;SDS011;44037;55.638;37.356;2023-07-30T13:59:31;2.67;;;1.60;;
58238;SDS011;44037;55.638;37.356;2023-07-30T14:01:59;4.72;;;1.67;;
58238;SDS011;44037;55.638;37.356;2023-07-30T14:04:26;1.73;;;1.42;;
58238;SDS011;44037;55.638;37.356;2023-07-30T14:06:53;2.25;;;1.63;;
58238;SDS011;44037;55.638;37.356;2023-07-30T14:09:22;2.83;;;1.40;;
58238;SDS011;44037;55.638;37.356;2023-07-30T14:11:59;3.90;;;1.63;;
58238;SDS011;44037;55.638;37.356;2023-07-30T14:14:26;4.65;;;1.50;;
58238;SDS011;44037;55.638;37.356;2023-07-30T14:16:54;2.10;;;1.35;;
58238;SDS011;44037;55.638;37.356;2023-07-30T14:19:22;2.13;;;1.67;;
58238;SDS011;44037;55.638;37.356;2023-07-30T14:21:49;2.67;;;1.65;;
58238;SDS011;44037;55.638;37.356;2023-07-30T14:24:16;4.20;;;1.35;;
58238;SDS011;44037;55.638;37.356;2023-07-30T14:26:45;2.17;;;1.50;;
58238;SDS011;44037;55.638;37.356;2023-07-30T14:29:12;1.88;;;1.20;;
58238;SDS011;44037;55.638;37.356;2023-07-30T14:31:39;3.88;;;2.58;;
58238;SDS011;44037;55.638;37.356;2023-07-30T14:34:06;3.78;;;1.50;;
58238;SDS011;44037;55.638;37.356;2023-07-30T14:36:34;3.15;;;2.13;;